createdAt,value
2018-09-25T00:00:10.543Z,0.00
2018-09-25T00:01:10.628Z,0.00
2018-09-25T00:02:10.719Z,0.00
2018-09-25T00:03:10.813Z,0.00
2018-09-25T00:04:10.898Z,0.00
2018-09-25T00:05:21.052Z,0.00
2018-09-25T00:06:11.023Z,0.00
2018-09-25T00:07:11.111Z,0.00
2018-09-25T00:08:11.199Z,0.00
2018-09-25T00:09:11.315Z,0.00
2018-09-25T00:10:11.448Z,0.00
2018-09-25T00:11:11.499Z,0.00
2018-09-25T00:12:11.580Z,0.00
2018-09-25T00:13:11.670Z,0.00
2018-09-25T00:14:11.759Z,0.00
2018-09-25T00:15:11.849Z,0.00
2018-09-25T00:16:11.941Z,0.00
2018-09-25T00:17:12.031Z,0.00
2018-09-25T00:18:12.122Z,0.00
2018-09-25T00:19:12.216Z,0.00
2018-09-25T00:20:12.300Z,0.00
2018-09-25T00:21:12.389Z,0.00
2018-09-25T00:22:12.480Z,0.00
2018-09-25T00:23:12.572Z,0.00
2018-09-25T00:24:12.661Z,0.00
2018-09-25T00:25:12.744Z,0.00
2018-09-25T00:26:12.835Z,0.00
2018-09-25T00:27:12.926Z,0.00
2018-09-25T00:28:13.014Z,0.00
2018-09-25T00:29:13.106Z,0.00
2018-09-25T00:30:13.191Z,0.00
2018-09-25T00:31:13.283Z,0.00
2018-09-25T00:32:13.366Z,0.00
2018-09-25T00:33:13.461Z,0.00
2018-09-25T00:34:13.566Z,0.00
2018-09-25T00:35:13.641Z,0.00
2018-09-25T00:36:13.731Z,0.00
2018-09-25T00:37:13.821Z,0.00
2018-09-25T00:38:13.908Z,0.00
2018-09-25T00:39:13.993Z,0.00
2018-09-25T00:40:14.081Z,0.00
2018-09-25T00:41:14.168Z,0.00
2018-09-25T00:42:14.264Z,0.00
2018-09-25T00:43:14.332Z,0.00
2018-09-25T00:44:14.420Z,0.00
2018-09-25T00:45:14.502Z,0.00
2018-09-25T00:46:14.590Z,0.00
2018-09-25T00:47:14.673Z,0.00
2018-09-25T00:48:14.759Z,0.00
2018-09-25T00:49:14.849Z,0.00
2018-09-25T00:50:14.938Z,0.00
2018-09-25T00:51:15.026Z,0.00
2018-09-25T00:52:15.116Z,0.00
2018-09-25T00:53:15.203Z,0.00
2018-09-25T00:54:15.296Z,0.00
2018-09-25T00:55:24.017Z,0.00
2018-09-25T00:56:15.526Z,0.00
2018-09-25T00:57:15.576Z,0.00
2018-09-25T00:58:15.667Z,0.00
2018-09-25T00:59:15.755Z,0.00
2018-09-25T01:00:15.846Z,0.00
2018-09-25T01:01:15.932Z,0.00
2018-09-25T01:02:16.021Z,0.00
2018-09-25T01:03:16.112Z,0.00
2018-09-25T01:04:16.200Z,0.00
2018-09-25T01:05:16.312Z,0.00
2018-09-25T01:06:16.409Z,0.00
2018-09-25T01:07:16.493Z,0.00
2018-09-25T01:08:16.593Z,0.00
2018-09-25T01:09:16.673Z,0.00
2018-09-25T01:10:16.761Z,0.00
2018-09-25T01:11:16.854Z,0.00
2018-09-25T01:12:16.946Z,0.00
2018-09-25T01:13:17.032Z,0.00
2018-09-25T01:14:17.123Z,0.00
2018-09-25T01:15:17.210Z,0.00
2018-09-25T01:16:17.302Z,0.00
2018-09-25T01:17:17.391Z,0.00
2018-09-25T01:18:17.482Z,0.00
2018-09-25T01:19:17.664Z,0.00
2018-09-25T01:20:17.680Z,0.00
2018-09-25T01:21:17.758Z,0.00
2018-09-25T01:22:17.832Z,0.00
2018-09-25T01:23:17.923Z,0.00
2018-09-25T01:24:18.013Z,0.00
2018-09-25T01:25:18.105Z,0.00
2018-09-25T01:26:18.191Z,0.00
2018-09-25T01:27:18.279Z,0.00
2018-09-25T01:28:18.365Z,0.00
2018-09-25T01:29:18.460Z,0.00
2018-09-25T01:30:18.555Z,0.00
2018-09-25T01:31:18.639Z,0.00
2018-09-25T01:32:18.734Z,0.00
2018-09-25T01:33:18.825Z,0.00
2018-09-25T01:34:18.923Z,0.00
2018-09-25T01:35:18.999Z,0.00
2018-09-25T01:36:19.088Z,0.00
2018-09-25T01:37:19.173Z,0.00
2018-09-25T01:38:19.262Z,0.00
2018-09-25T01:39:19.353Z,0.00
2018-09-25T01:40:26.582Z,0.00
2018-09-25T01:41:19.551Z,0.00
2018-09-25T01:42:19.640Z,0.00
2018-09-25T01:43:19.729Z,0.00
2018-09-25T01:44:19.813Z,0.00
2018-09-25T01:45:29.578Z,0.00
2018-09-25T01:46:20.048Z,0.00
2018-09-25T01:47:28.297Z,0.00
2018-09-25T01:48:28.409Z,0.00
2018-09-25T01:49:27.509Z,0.00
2018-09-25T01:50:27.612Z,0.00
2018-09-25T01:51:20.584Z,0.00
2018-09-25T01:52:20.670Z,0.00
2018-09-25T01:53:20.761Z,0.00
2018-09-25T01:54:20.849Z,0.00
2018-09-25T01:55:20.937Z,0.00
2018-09-25T01:56:21.028Z,0.00
2018-09-25T01:57:21.117Z,0.00
2018-09-25T01:58:21.203Z,0.00
2018-09-25T01:59:21.290Z,0.00
2018-09-25T02:00:21.378Z,0.00
2018-09-25T02:01:21.467Z,0.00
2018-09-25T02:02:21.558Z,0.00
2018-09-25T02:03:21.651Z,0.00
2018-09-25T02:04:21.737Z,0.00
2018-09-25T02:05:21.823Z,0.00
2018-09-25T02:06:21.910Z,0.00
2018-09-25T02:07:22.001Z,0.00
2018-09-25T02:08:22.089Z,0.00
2018-09-25T02:09:22.181Z,0.00
2018-09-25T02:10:22.262Z,0.00
2018-09-25T02:11:22.350Z,0.00
2018-09-25T02:12:22.443Z,0.00
2018-09-25T02:13:22.608Z,0.00
2018-09-25T02:14:22.609Z,0.00
2018-09-25T02:15:22.703Z,0.00
2018-09-25T02:16:22.790Z,0.00
2018-09-25T02:17:22.892Z,0.00
2018-09-25T02:18:22.976Z,0.00
2018-09-25T02:19:23.063Z,0.00
2018-09-25T02:20:23.156Z,0.00
2018-09-25T02:21:23.246Z,0.00
2018-09-25T02:22:23.335Z,0.00
2018-09-25T02:23:23.423Z,0.00
2018-09-25T02:24:23.512Z,0.00
2018-09-25T02:25:23.601Z,0.00
2018-09-25T02:26:23.692Z,0.00
2018-09-25T02:27:23.783Z,0.00
2018-09-25T02:28:23.869Z,0.00
2018-09-25T02:29:23.961Z,0.00
2018-09-25T02:30:24.047Z,0.00
2018-09-25T02:31:24.137Z,0.00
2018-09-25T02:32:24.219Z,0.00
2018-09-25T02:33:24.307Z,0.00
2018-09-25T02:34:24.396Z,0.00
2018-09-25T02:35:24.481Z,0.00
2018-09-25T02:36:24.573Z,0.00
2018-09-25T02:37:24.662Z,0.00
2018-09-25T02:38:24.756Z,0.00
2018-09-25T02:39:24.846Z,0.00
2018-09-25T02:40:24.937Z,0.00
2018-09-25T02:41:25.023Z,0.00
2018-09-25T02:42:25.119Z,0.00
2018-09-25T02:43:25.209Z,0.00
2018-09-25T02:44:25.299Z,0.00
2018-09-25T02:45:25.386Z,0.00
2018-09-25T02:46:25.475Z,0.00
2018-09-25T02:47:25.567Z,0.00
2018-09-25T02:48:25.656Z,0.00
2018-09-25T02:49:25.747Z,0.00
2018-09-25T02:50:25.838Z,0.00
2018-09-25T02:51:25.927Z,0.00
2018-09-25T02:52:26.013Z,0.00
2018-09-25T02:53:26.103Z,0.00
2018-09-25T02:54:26.190Z,0.00
2018-09-25T02:55:26.278Z,0.00
2018-09-25T02:56:26.371Z,0.00
2018-09-25T02:57:26.460Z,0.00
2018-09-25T02:58:26.560Z,0.00
2018-09-25T02:59:26.647Z,0.00
2018-09-25T03:00:26.735Z,0.00
2018-09-25T03:01:26.823Z,0.00
2018-09-25T03:02:26.912Z,0.00
2018-09-25T03:03:27.003Z,0.00
2018-09-25T03:04:27.093Z,0.00
2018-09-25T03:05:27.181Z,0.00
2018-09-25T03:06:27.272Z,0.00
2018-09-25T03:07:27.363Z,0.00
2018-09-25T03:08:27.451Z,0.00
2018-09-25T03:09:27.539Z,0.00
2018-09-25T03:10:27.627Z,0.00
2018-09-25T03:11:27.715Z,0.00
2018-09-25T03:12:27.807Z,0.00
2018-09-25T03:13:27.897Z,0.00
2018-09-25T03:14:27.981Z,0.00
2018-09-25T03:15:28.068Z,0.00
2018-09-25T03:16:28.159Z,0.00
2018-09-25T03:17:28.247Z,0.00
2018-09-25T03:18:28.337Z,0.00
2018-09-25T03:19:28.428Z,0.00
2018-09-25T03:20:28.510Z,0.00
2018-09-25T03:21:28.597Z,0.00
2018-09-25T03:22:28.685Z,0.00
2018-09-25T03:23:28.773Z,0.00
2018-09-25T03:24:28.859Z,0.00
2018-09-25T03:25:28.952Z,0.00
2018-09-25T03:26:29.036Z,0.00
2018-09-25T03:27:29.140Z,0.00
2018-09-25T03:28:29.229Z,0.00
2018-09-25T03:29:29.318Z,0.00
2018-09-25T03:30:29.405Z,0.00
2018-09-25T03:31:29.491Z,0.00
2018-09-25T03:32:29.592Z,0.00
2018-09-25T03:33:29.674Z,0.00
2018-09-25T03:34:29.763Z,0.00
2018-09-25T03:35:29.852Z,0.00
2018-09-25T03:36:29.943Z,0.00
2018-09-25T03:37:30.032Z,0.00
2018-09-25T03:38:30.124Z,0.00
2018-09-25T03:39:30.214Z,0.00
2018-09-25T03:40:30.298Z,0.00
2018-09-25T03:41:30.389Z,0.00
2018-09-25T03:42:30.477Z,0.00
2018-09-25T03:43:30.568Z,0.00
2018-09-25T03:44:30.732Z,0.00
2018-09-25T03:45:30.755Z,0.00
2018-09-25T03:46:30.841Z,0.00
2018-09-25T03:47:30.929Z,0.00
2018-09-25T03:48:31.022Z,0.00
2018-09-25T03:49:31.115Z,0.00
2018-09-25T03:50:31.202Z,0.00
2018-09-25T03:51:31.299Z,0.00
2018-09-25T03:52:31.385Z,4.00
2018-09-25T03:53:31.476Z,0.00
2018-09-25T03:54:31.565Z,0.00
2018-09-25T03:55:31.655Z,0.00
2018-09-25T03:56:31.748Z,0.00
2018-09-25T03:57:31.840Z,0.00
2018-09-25T03:58:31.932Z,0.00
2018-09-25T03:59:32.073Z,0.00
2018-09-25T04:00:32.115Z,0.00
2018-09-25T04:01:32.198Z,0.00
2018-09-25T04:02:32.288Z,0.00
2018-09-25T04:03:32.379Z,0.00
2018-09-25T04:04:32.473Z,0.00
2018-09-25T04:05:32.560Z,0.00
2018-09-25T04:06:32.645Z,0.00
2018-09-25T04:07:32.736Z,0.00
2018-09-25T04:08:32.827Z,0.00
2018-09-25T04:09:32.917Z,0.00
2018-09-25T04:10:32.997Z,0.00
2018-09-25T04:11:33.089Z,0.00
2018-09-25T04:12:33.180Z,0.00
2018-09-25T04:13:33.271Z,0.00
2018-09-25T04:14:33.359Z,0.00
2018-09-25T04:15:33.444Z,0.00
2018-09-25T04:16:33.540Z,0.00
2018-09-25T04:17:33.626Z,0.00
2018-09-25T04:18:33.711Z,0.00
2018-09-25T04:19:33.782Z,0.00
2018-09-25T04:20:33.870Z,0.00
2018-09-25T04:21:33.962Z,0.00
2018-09-25T04:22:34.053Z,0.00
2018-09-25T04:23:34.139Z,0.00
2018-09-25T04:24:34.235Z,0.00
2018-09-25T04:25:34.323Z,0.00
2018-09-25T04:26:34.407Z,0.00
2018-09-25T04:27:34.492Z,0.00
2018-09-25T04:28:34.684Z,0.00
2018-09-25T04:29:34.673Z,0.00
2018-09-25T04:30:34.761Z,4.00
2018-09-25T04:31:34.848Z,4.00
2018-09-25T04:32:34.938Z,8.00
2018-09-25T04:33:35.035Z,4.00
2018-09-25T04:34:35.118Z,4.00
2018-09-25T04:35:35.207Z,4.00
2018-09-25T04:36:35.296Z,4.00
2018-09-25T04:37:35.387Z,8.00
2018-09-25T04:38:35.478Z,4.00
2018-09-25T04:39:35.569Z,4.00
2018-09-25T04:40:35.655Z,4.00
2018-09-25T04:41:35.747Z,8.00
2018-09-25T04:42:35.832Z,8.00
2018-09-25T04:43:35.920Z,4.00
2018-09-25T04:44:36.010Z,8.00
2018-09-25T04:45:36.103Z,4.00
2018-09-25T04:46:36.188Z,8.00
2018-09-25T04:47:36.285Z,8.00
2018-09-25T04:48:36.404Z,8.00
2018-09-25T04:49:36.467Z,8.00
2018-09-25T04:50:36.558Z,12.00
2018-09-25T04:51:36.648Z,16.00
2018-09-25T04:52:36.735Z,16.00
2018-09-25T04:53:36.837Z,12.00
2018-09-25T04:54:36.925Z,20.00
2018-09-25T04:55:37.017Z,24.00
2018-09-25T04:56:39.107Z,24.00
2018-09-25T04:57:37.239Z,28.00
2018-09-25T04:58:37.328Z,36.00
2018-09-25T04:59:37.413Z,40.00
2018-09-25T05:00:37.499Z,44.00
2018-09-25T05:01:37.591Z,52.00
2018-09-25T05:02:37.685Z,60.00
2018-09-25T05:03:37.772Z,68.00
2018-09-25T05:04:37.853Z,76.00
2018-09-25T05:05:37.954Z,84.00
2018-09-25T05:06:38.100Z,96.00
2018-09-25T05:07:38.114Z,104.00
2018-09-25T05:08:38.209Z,116.00
2018-09-25T05:09:38.288Z,128.00
2018-09-25T05:10:38.379Z,136.00
2018-09-25T05:11:38.469Z,144.00
2018-09-25T05:12:38.584Z,160.00
2018-09-25T05:13:38.673Z,176.00
2018-09-25T05:14:38.765Z,196.00
2018-09-25T05:15:38.850Z,208.00
2018-09-25T05:16:38.945Z,232.00
2018-09-25T05:17:39.026Z,248.00
2018-09-25T05:18:39.112Z,264.00
2018-09-25T05:19:39.201Z,276.00
2018-09-25T05:20:39.291Z,284.00
2018-09-25T05:21:39.381Z,296.00
2018-09-25T05:22:39.463Z,296.00
2018-09-25T05:23:39.566Z,292.00
2018-09-25T05:24:39.659Z,292.00
2018-09-25T05:25:39.750Z,300.00
2018-09-25T05:26:39.816Z,308.00
2018-09-25T05:27:39.903Z,324.00
2018-09-25T05:28:39.989Z,332.00
2018-09-25T05:29:40.080Z,344.00
2018-09-25T05:30:40.180Z,356.00
2018-09-25T05:31:40.254Z,376.00
2018-09-25T05:32:40.367Z,396.00
2018-09-25T05:33:40.457Z,424.00
2018-09-25T05:34:40.548Z,440.00
2018-09-25T05:35:40.633Z,456.00
2018-09-25T05:36:40.732Z,460.00
2018-09-25T05:37:40.846Z,468.00
2018-09-25T05:38:40.932Z,464.00
2018-09-25T05:39:41.020Z,456.00
2018-09-25T05:40:41.112Z,452.00
2018-09-25T05:41:41.201Z,464.00
2018-09-25T05:42:41.287Z,472.00
2018-09-25T05:43:41.376Z,472.00
2018-09-25T05:44:41.454Z,476.00
2018-09-25T05:45:41.553Z,488.00
2018-09-25T05:46:41.643Z,532.00
2018-09-25T05:47:41.747Z,564.00
2018-09-25T05:48:41.923Z,592.00
2018-09-25T05:49:41.947Z,628.00
2018-09-25T05:50:42.071Z,672.00
2018-09-25T05:51:42.168Z,672.00
2018-09-25T05:52:42.260Z,672.00
2018-09-25T05:53:42.340Z,688.00
2018-09-25T05:54:42.439Z,712.00
2018-09-25T05:55:42.658Z,752.00
2018-09-25T05:56:42.615Z,808.00
2018-09-25T05:57:42.705Z,880.00
2018-09-25T05:58:42.796Z,912.00
2018-09-25T05:59:42.868Z,876.00
2018-09-25T06:00:42.958Z,832.00
2018-09-25T06:01:43.056Z,832.00
2018-09-25T06:02:43.126Z,848.00
2018-09-25T06:03:43.225Z,868.00
2018-09-25T06:04:43.308Z,892.00
2018-09-25T06:05:50.546Z,952.00
2018-09-25T06:06:43.512Z,1008.00
2018-09-25T06:07:43.601Z,1076.00
2018-09-25T06:08:43.691Z,1112.00
2018-09-25T06:09:43.819Z,1128.00
2018-09-25T06:10:43.870Z,1140.00
2018-09-25T06:11:43.962Z,1176.00
2018-09-25T06:12:44.052Z,1208.00
2018-09-25T06:13:44.141Z,1192.00
2018-09-25T06:14:44.233Z,1168.00
2018-09-25T06:15:44.337Z,1192.00
2018-09-25T06:16:44.411Z,1072.00
2018-09-25T06:17:44.504Z,1096.00
2018-09-25T06:18:44.638Z,1184.00
2018-09-25T06:19:44.686Z,1272.00
2018-09-25T06:20:44.771Z,1352.00
2018-09-25T06:21:44.864Z,1436.00
2018-09-25T06:22:44.960Z,1360.00
2018-09-25T06:23:45.049Z,1400.00
2018-09-25T06:24:45.138Z,1568.00
2018-09-25T06:25:45.229Z,1528.00
2018-09-25T06:26:45.319Z,1516.00
2018-09-25T06:27:45.407Z,1520.00
2018-09-25T06:28:45.572Z,1532.00
2018-09-25T06:29:45.613Z,1476.00
2018-09-25T06:30:45.703Z,1172.00
2018-09-25T06:31:45.793Z,1416.00
2018-09-25T06:32:45.882Z,1576.00
2018-09-25T06:33:45.971Z,1712.00
2018-09-25T06:34:46.110Z,1820.00
2018-09-25T06:35:46.143Z,1924.00
2018-09-25T06:36:46.235Z,1956.00
2018-09-25T06:37:46.322Z,2016.00
2018-09-25T06:38:46.468Z,1864.00
2018-09-25T06:39:46.499Z,1616.00
2018-09-25T06:40:46.621Z,1628.00
2018-09-25T06:41:54.861Z,1740.00
2018-09-25T06:42:46.830Z,1772.00
2018-09-25T06:43:46.916Z,1716.00
2018-09-25T06:44:54.147Z,1972.00
2018-09-25T06:45:47.107Z,1824.00
2018-09-25T06:46:47.190Z,1816.00
2018-09-25T06:47:47.277Z,1912.00
2018-09-25T06:48:47.374Z,2088.00
2018-09-25T06:49:47.465Z,2116.00
2018-09-25T06:50:47.560Z,2184.00
2018-09-25T06:51:56.283Z,2200.00
2018-09-25T06:52:55.403Z,2248.00
2018-09-25T06:53:47.873Z,2300.00
2018-09-25T06:54:48.001Z,2032.00
2018-09-25T06:55:48.047Z,1808.00
2018-09-25T06:56:48.145Z,2152.00
2018-09-25T06:57:48.235Z,2148.00
2018-09-25T06:58:48.332Z,1796.00
2018-09-25T06:59:48.422Z,2032.00
2018-09-25T07:00:48.531Z,2268.00
2018-09-25T07:01:48.596Z,2272.00
2018-09-25T07:02:48.693Z,2284.00
2018-09-25T07:03:48.786Z,2320.00
2018-09-25T07:04:48.877Z,2348.00
2018-09-25T07:05:48.966Z,2320.00
2018-09-25T07:06:49.056Z,2240.00
2018-09-25T07:07:49.147Z,2380.00
2018-09-25T07:08:49.238Z,2504.00
2018-09-25T07:09:49.424Z,2460.00
2018-09-25T07:10:49.419Z,2604.00
2018-09-25T07:11:49.507Z,2528.00
2018-09-25T07:12:49.597Z,2536.00
2018-09-25T07:13:49.687Z,2584.00
2018-09-25T07:14:49.783Z,2700.00
2018-09-25T07:15:49.873Z,2752.00
2018-09-25T07:16:49.966Z,2856.00
2018-09-25T07:17:50.105Z,3088.00
2018-09-25T07:18:50.143Z,3336.00
2018-09-25T07:19:50.236Z,3420.00
2018-09-25T07:20:50.321Z,3384.00
2018-09-25T07:21:50.412Z,3336.00
2018-09-25T07:22:50.518Z,3368.00
2018-09-25T07:23:50.593Z,3492.00
2018-09-25T07:24:50.682Z,3496.00
2018-09-25T07:25:50.766Z,3508.00
2018-09-25T07:26:50.862Z,3540.00
2018-09-25T07:27:50.952Z,3612.00
2018-09-25T07:28:51.059Z,3724.00
2018-09-25T07:29:51.139Z,3828.00
2018-09-25T07:30:51.282Z,3792.00
2018-09-25T07:31:51.318Z,3828.00
2018-09-25T07:32:51.420Z,3868.00
2018-09-25T07:33:51.504Z,3864.00
2018-09-25T07:34:51.601Z,3856.00
2018-09-25T07:35:51.736Z,3872.00
2018-09-25T07:36:51.790Z,3864.00
2018-09-25T07:37:51.871Z,3860.00
2018-09-25T07:38:51.962Z,3940.00
2018-09-25T07:39:52.121Z,4020.00
2018-09-25T07:40:52.138Z,4300.00
2018-09-25T07:41:52.234Z,3980.00
2018-09-25T07:42:52.326Z,4128.00
2018-09-25T07:43:52.420Z,4192.00
2018-09-25T07:44:52.508Z,4124.00
2018-09-25T07:45:52.629Z,4172.00
2018-09-25T07:46:52.740Z,4184.00
2018-09-25T07:47:52.832Z,4216.00
2018-09-25T07:48:52.927Z,4188.00
2018-09-25T07:49:53.014Z,4312.00
2018-09-25T07:50:53.106Z,4380.00
2018-09-25T07:51:53.193Z,4316.00
2018-09-25T07:52:53.284Z,4340.00
2018-09-25T07:53:53.373Z,4472.00
2018-09-25T07:54:53.462Z,4580.00
2018-09-25T07:55:53.551Z,4820.00
2018-09-25T07:56:53.644Z,4716.00
2018-09-25T07:57:53.733Z,4392.00
2018-09-25T07:58:53.824Z,4316.00
2018-09-25T07:59:53.911Z,4200.00
2018-09-25T08:00:54.004Z,3944.00
2018-09-25T08:01:54.094Z,3868.00
2018-09-25T08:02:54.186Z,3800.00
2018-09-25T08:03:54.275Z,3984.00
2018-09-25T08:04:54.377Z,3812.00
2018-09-25T08:05:54.471Z,3464.00
2018-09-25T08:06:54.560Z,3304.00
2018-09-25T08:07:54.651Z,3564.00
2018-09-25T08:08:54.829Z,3808.00
2018-09-25T08:09:54.835Z,3692.00
2018-09-25T08:10:54.933Z,3636.00
2018-09-25T08:11:55.009Z,3680.00
2018-09-25T08:12:55.101Z,3656.00
2018-09-25T08:13:55.187Z,3592.00
2018-09-25T08:14:55.283Z,3692.00
2018-09-25T08:15:55.373Z,3684.00
2018-09-25T08:16:55.464Z,3644.00
2018-09-25T08:17:55.545Z,3644.00
2018-09-25T08:18:55.640Z,3660.00
2018-09-25T08:19:55.729Z,3672.00
2018-09-25T08:20:55.825Z,3680.00
2018-09-25T08:21:55.912Z,3692.00
2018-09-25T08:22:56.002Z,3700.00
2018-09-25T08:23:56.111Z,3720.00
2018-09-25T08:24:56.205Z,3724.00
2018-09-25T08:25:56.290Z,3728.00
2018-09-25T08:26:56.378Z,3740.00
2018-09-25T08:27:56.466Z,3748.00
2018-09-25T08:28:56.559Z,3748.00
2018-09-25T08:29:56.647Z,3796.00
2018-09-25T08:30:56.740Z,3776.00
2018-09-25T08:31:56.826Z,3792.00
2018-09-25T08:32:56.921Z,3804.00
2018-09-25T08:33:57.011Z,3844.00
2018-09-25T08:34:57.101Z,3808.00
2018-09-25T08:35:57.187Z,3808.00
2018-09-25T08:36:57.274Z,3840.00
2018-09-25T08:37:57.358Z,3848.00
2018-09-25T08:38:57.537Z,3856.00
2018-09-25T08:39:57.540Z,3876.00
2018-09-25T08:40:57.631Z,3884.00
2018-09-25T08:41:57.720Z,3896.00
2018-09-25T08:42:57.811Z,3904.00
2018-09-25T08:43:57.904Z,3908.00
2018-09-25T08:44:57.993Z,3928.00
2018-09-25T08:45:58.139Z,3932.00
2018-09-25T08:46:58.175Z,4200.00
2018-09-25T08:47:58.265Z,3952.00
2018-09-25T08:48:58.359Z,3956.00
2018-09-25T08:49:58.448Z,3976.00
2018-09-25T08:50:58.540Z,3980.00
2018-09-25T08:51:58.632Z,3952.00
2018-09-25T08:52:58.727Z,4136.00
2018-09-25T08:53:58.814Z,4008.00
2018-09-25T08:54:58.907Z,4016.00
2018-09-25T08:55:58.999Z,4036.00
2018-09-25T08:56:59.090Z,4016.00
2018-09-25T08:57:59.178Z,4060.00
2018-09-25T08:58:59.271Z,4092.00
2018-09-25T08:59:59.360Z,4116.00
2018-09-25T09:00:59.493Z,4148.00
2018-09-25T09:01:59.543Z,4136.00
2018-09-25T09:02:59.638Z,4080.00
2018-09-25T09:03:59.731Z,4108.00
2018-09-25T09:04:59.817Z,4152.00
2018-09-25T09:05:59.911Z,4188.00
2018-09-25T09:07:00.025Z,4228.00
2018-09-25T09:08:00.117Z,4196.00
2018-09-25T09:09:00.199Z,4288.00
2018-09-25T09:10:00.289Z,4256.00
2018-09-25T09:11:00.380Z,4296.00
2018-09-25T09:12:00.471Z,4332.00
2018-09-25T09:13:00.566Z,4184.00
2018-09-25T09:14:00.646Z,4404.00
2018-09-25T09:15:00.736Z,4432.00
2018-09-25T09:16:00.832Z,4436.00
2018-09-25T09:17:00.919Z,4372.00
2018-09-25T09:18:01.014Z,4440.00
2018-09-25T09:19:01.109Z,4480.00
2018-09-25T09:20:01.259Z,4504.00
2018-09-25T09:21:01.300Z,4492.00
2018-09-25T09:22:01.395Z,4696.00
2018-09-25T09:23:01.523Z,4744.00
2018-09-25T09:24:01.597Z,4752.00
2018-09-25T09:25:01.755Z,5132.00
2018-09-25T09:26:01.782Z,4900.00
2018-09-25T09:27:01.878Z,4980.00
2018-09-25T09:28:01.976Z,4984.00
2018-09-25T09:29:02.062Z,5104.00
2018-09-25T09:30:02.156Z,4884.00
2018-09-25T09:31:02.250Z,4784.00
2018-09-25T09:32:02.347Z,4912.00
2018-09-25T09:33:02.443Z,5108.00
2018-09-25T09:34:02.535Z,5208.00
2018-09-25T09:35:02.636Z,5228.00
2018-09-25T09:36:02.727Z,5252.00
2018-09-25T09:37:02.840Z,5876.00
2018-09-25T09:38:02.933Z,5716.00
2018-09-25T09:39:03.034Z,5852.00
2018-09-25T09:40:03.152Z,6332.00
2018-09-25T09:41:03.282Z,6140.00
2018-09-25T09:42:03.525Z,6008.00
2018-09-25T09:43:03.419Z,5904.00
2018-09-25T09:44:03.516Z,5788.00
2018-09-25T09:45:03.616Z,6048.00
2018-09-25T09:46:03.712Z,6384.00
2018-09-25T09:47:03.809Z,6176.00
2018-09-25T09:48:03.902Z,6244.00
2018-09-25T09:49:03.997Z,6868.00
2018-09-25T09:50:04.094Z,7204.00
2018-09-25T09:51:04.188Z,7376.00
2018-09-25T09:52:04.287Z,7108.00
2018-09-25T09:53:04.382Z,6868.00
2018-09-25T09:54:04.479Z,6900.00
2018-09-25T09:55:04.576Z,7064.00
2018-09-25T09:56:04.671Z,6936.00
2018-09-25T09:57:04.768Z,6944.00
2018-09-25T09:58:04.868Z,7128.00
2018-09-25T09:59:04.956Z,7096.00
2018-09-25T10:00:05.059Z,4384.00
2018-09-25T10:01:05.169Z,4276.00
2018-09-25T10:02:05.269Z,4104.00
2018-09-25T10:03:05.370Z,3904.00
2018-09-25T10:04:05.466Z,4000.00
2018-09-25T10:05:05.562Z,4216.00
2018-09-25T10:06:05.661Z,3812.00
2018-09-25T10:07:05.804Z,3828.00
2018-09-25T10:08:05.857Z,3952.00
2018-09-25T10:09:05.958Z,3928.00
2018-09-25T10:10:06.057Z,3912.00
2018-09-25T10:11:06.157Z,3840.00
2018-09-25T10:12:06.265Z,3988.00
2018-09-25T10:13:06.350Z,4088.00
2018-09-25T10:14:06.448Z,4184.00
2018-09-25T10:15:06.545Z,4244.00
2018-09-25T10:16:06.644Z,4188.00
2018-09-25T10:17:06.748Z,4080.00
2018-09-25T10:18:06.829Z,3968.00
2018-09-25T10:19:06.928Z,3792.00
2018-09-25T10:20:07.024Z,3772.00
2018-09-25T10:21:07.124Z,3884.00
2018-09-25T10:22:07.223Z,3896.00
2018-09-25T10:23:07.322Z,4020.00
2018-09-25T10:24:07.417Z,4112.00
2018-09-25T10:25:07.515Z,4216.00
2018-09-25T10:26:07.618Z,4324.00
2018-09-25T10:29:50.824Z,4584.00
2018-09-25T10:30:50.932Z,4692.00
2018-09-25T10:31:51.024Z,4784.00
2018-09-25T10:32:51.127Z,4740.00
2018-09-25T10:33:51.275Z,4592.00
2018-09-25T10:34:51.314Z,4392.00
2018-09-25T10:35:51.408Z,4216.00
2018-09-25T10:36:51.507Z,4080.00
2018-09-25T10:37:51.592Z,3832.00
2018-09-25T10:38:51.689Z,3860.00
2018-09-25T10:39:51.778Z,3648.00
2018-09-25T10:40:52.426Z,3508.00
2018-09-25T10:41:52.005Z,3404.00
2018-09-25T10:42:52.108Z,3584.00
2018-09-25T10:43:52.189Z,3448.00
2018-09-25T10:44:52.285Z,3424.00
2018-09-25T10:45:52.375Z,4008.00
2018-09-25T10:46:52.476Z,5928.00
2018-09-25T10:47:52.571Z,5732.00
2018-09-25T10:48:52.661Z,5476.00
2018-09-25T10:49:52.836Z,2860.00
2018-09-25T10:50:53.101Z,2996.00
2018-09-25T10:51:52.907Z,3052.00
2018-09-25T10:52:53.002Z,2844.00
2018-09-25T10:53:53.100Z,2872.00
2018-09-25T10:54:53.196Z,2892.00
2018-09-25T10:55:53.345Z,2924.00
2018-09-25T10:56:53.379Z,3008.00
2018-09-25T10:57:53.485Z,3048.00
2018-09-25T10:58:53.594Z,3136.00
2018-09-25T10:59:53.687Z,3304.00
2018-09-25T11:00:54.113Z,3524.00
2018-09-25T11:01:53.953Z,3756.00
2018-09-25T11:02:54.075Z,4036.00
2018-09-25T11:03:54.153Z,4340.00
2018-09-25T11:04:54.259Z,4512.00
2018-09-25T11:05:54.349Z,4616.00
2018-09-25T11:06:54.440Z,4720.00
2018-09-25T11:07:54.546Z,4772.00
2018-09-25T11:08:54.645Z,4832.00
2018-09-25T11:09:54.744Z,4880.00
2018-09-25T11:10:54.839Z,4832.00
2018-09-25T11:11:54.925Z,4816.00
2018-09-25T11:12:55.012Z,4800.00
2018-09-25T11:13:55.123Z,4800.00
2018-09-25T11:14:55.202Z,8088.00
2018-09-25T11:15:55.301Z,9076.00
2018-09-25T11:16:55.397Z,7964.00
2018-09-25T11:17:55.515Z,7892.00
2018-09-25T11:19:02.756Z,7712.00
2018-09-25T11:19:55.729Z,7824.00
2018-09-25T11:20:55.829Z,7744.00
2018-09-25T11:21:55.918Z,7740.00
2018-09-25T11:22:56.015Z,7604.00
2018-09-25T11:23:56.110Z,7448.00
2018-09-25T11:24:56.216Z,7192.00
2018-09-25T11:25:56.306Z,7332.00
2018-09-25T11:26:56.398Z,6152.00
2018-09-25T11:27:56.493Z,4860.00
2018-09-25T11:28:56.588Z,4908.00
2018-09-25T11:29:56.684Z,4964.00
2018-09-25T11:30:56.778Z,5016.00
2018-09-25T11:31:56.871Z,5156.00
2018-09-25T11:32:56.962Z,5224.00
2018-09-25T11:33:57.060Z,5388.00
2018-09-25T11:34:57.157Z,5532.00
2018-09-25T11:35:57.253Z,5708.00
2018-09-25T11:36:57.353Z,5668.00
2018-09-25T11:37:57.454Z,5608.00
2018-09-25T11:38:57.548Z,5452.00
2018-09-25T11:39:57.645Z,5428.00
2018-09-25T11:40:57.774Z,7140.00
2018-09-25T11:41:57.833Z,7956.00
2018-09-25T11:42:57.929Z,8232.00
2018-09-25T11:43:58.024Z,8188.00
2018-09-25T11:44:58.120Z,7844.00
2018-09-25T11:45:58.276Z,8920.00
2018-09-25T11:46:58.481Z,7956.00
2018-09-25T11:47:58.409Z,7588.00
2018-09-25T11:48:58.501Z,4320.00
2018-09-25T11:49:58.665Z,4236.00
2018-09-25T11:50:58.693Z,4012.00
2018-09-25T11:51:58.791Z,3804.00
2018-09-25T11:52:58.933Z,3688.00
2018-09-25T11:53:58.980Z,3564.00
2018-09-25T11:54:59.073Z,3508.00
2018-09-25T11:55:59.167Z,3468.00
2018-09-25T11:56:59.265Z,3504.00
2018-09-25T11:57:59.359Z,3616.00
2018-09-25T11:58:59.453Z,3784.00
2018-09-25T11:59:59.549Z,3940.00
2018-09-25T12:00:59.646Z,4056.00
2018-09-25T12:01:59.757Z,4104.00
2018-09-25T12:02:59.836Z,4120.00
2018-09-25T12:03:59.931Z,4168.00
2018-09-25T12:05:00.027Z,4076.00
2018-09-25T12:06:08.777Z,3984.00
2018-09-25T12:07:00.252Z,3916.00
2018-09-25T12:08:00.345Z,3840.00
2018-09-25T12:09:00.441Z,3808.00
2018-09-25T12:10:00.535Z,3872.00
2018-09-25T12:11:00.629Z,4040.00
2018-09-25T12:12:00.721Z,4180.00
2018-09-25T12:13:00.818Z,4216.00
2018-09-25T12:14:00.917Z,4224.00
2018-09-25T12:15:01.007Z,4244.00
2018-09-25T12:16:01.100Z,4324.00
2018-09-25T12:17:01.195Z,4368.00
2018-09-25T12:18:01.290Z,4428.00
2018-09-25T12:19:01.382Z,4728.00
2018-09-25T12:20:01.605Z,4688.00
2018-09-25T12:21:01.572Z,4728.00
2018-09-25T12:22:01.667Z,4784.00
2018-09-25T12:23:01.762Z,4868.00
2018-09-25T12:24:01.862Z,4944.00
2018-09-25T12:25:01.981Z,4980.00
2018-09-25T12:26:02.053Z,5096.00
2018-09-25T12:27:02.144Z,5316.00
2018-09-25T12:28:02.240Z,5740.00
2018-09-25T12:29:02.335Z,7452.00
2018-09-25T12:30:02.435Z,5060.00
2018-09-25T12:31:02.550Z,4892.00
2018-09-25T12:32:02.643Z,5000.00
2018-09-25T12:33:02.767Z,5384.00
2018-09-25T12:34:02.831Z,4192.00
2018-09-25T12:35:02.925Z,3932.00
2018-09-25T12:36:03.023Z,3764.00
2018-09-25T12:37:03.116Z,3664.00
2018-09-25T12:38:03.213Z,3604.00